Time,TemperatureF,DewpointF,PressureIn,WindDirection,WindDirectionDegrees,WindSpeedMPH,WindSpeedGustMPH,Humidity,HourlyPrecipIn,Conditions,Clouds,dailyrainin,SoftwareType,DateUTC
2013-06-25 00:05:00,80.5,70.0,30.17,ENE,73,0.0,-999.0,70,-99.99,,,0.00,weatherlink.com 1.10,2013-06-25 04:05:00,
2013-06-25 00:20:00,80.5,70.0,30.18,NE,52,1.0,-999.0,70,-99.99,,,0.00,weatherlink.com 1.10,2013-06-25 04:20:00,
2013-06-25 00:35:00,80.3,70.0,30.18,ENE,69,0.0,-999.0,70,-99.99,,,0.00,weatherlink.com 1.10,2013-06-25 04:35:00,
2013-06-25 00:50:00,80.3,70.0,30.18,East,87,1.0,-999.0,70,-99.99,,,0.00,weatherlink.com 1.10,2013-06-25 04:50:00,
2013-06-25 01:05:00,80.3,70.0,30.18,ENE,71,0.0,-999.0,71,-99.99,,,0.00,weatherlink.com 1.10,2013-06-25 05:05:00,
2013-06-25 01:20:00,80.1,70.0,30.17,ENE,59,0.0,-999.0,70,-99.99,,,0.00,weatherlink.com 1.10,2013-06-25 05:20:00,
2013-06-25 01:35:00,80.1,70.0,30.17,ENE,74,3.0,-999.0,71,-99.99,,,0.00,weatherlink.com 1.10,2013-06-25 05:35:00,
2013-06-25 01:50:00,80.1,70.0,30.16,NNW,330,0.0,-999.0,71,-99.99,,,0.00,weatherlink.com 1.10,2013-06-25 05:50:00,
2013-06-25 02:05:00,79.9,70.0,30.16,ENE,74,1.0,-999.0,71,-99.99,,,0.00,weatherlink.com 1.10,2013-06-25 06:05:00,
2013-06-25 02:20:00,79.9,70.0,30.15,ENE,58,0.0,-999.0,72,-99.99,,,0.00,weatherlink.com 1.10,2013-06-25 06:20:00,
2013-06-25 02:35:00,79.8,70.0,30.14,ENE,70,1.0,-999.0,72,-99.99,,,0.00,weatherlink.com 1.10,2013-06-25 06:35:00,
2013-06-25 02:50:00,79.8,70.0,30.14,NE,51,1.0,-999.0,72,-99.99,,,0.00,weatherlink.com 1.10,2013-06-25 06:50:00,
2013-06-25 03:06:00,79.8,70.0,30.14,ESE,112,0.0,-999.0,72,-99.99,,,0.00,weatherlink.com 1.10,2013-06-25 07:06:00,
2013-06-25 03:21:00,79.6,69.0,30.14,ENE,69,0.0,-999.0,71,-99.99,,,0.00,weatherlink.com 1.10,2013-06-25 07:21:00,
2013-06-25 03:36:00,79.4,70.0,30.14,East,79,0.0,-999.0,72,-99.99,,,0.00,weatherlink.com 1.10,2013-06-25 07:36:00,
2013-06-25 03:51:00,79.2,69.0,30.14,ENE,58,0.0,-999.0,72,-99.99,,,0.00,weatherlink.com 1.10,2013-06-25 07:51:00,
2013-06-25 04:06:00,79.2,69.0,30.14,East,91,1.0,-999.0,71,-99.99,,,0.00,weatherlink.com 1.10,2013-06-25 08:06:00,
2013-06-25 04:21:00,79.0,69.0,30.14,East,87,0.0,-999.0,71,-99.99,,,0.00,weatherlink.com 1.10,2013-06-25 08:21:00,
2013-06-25 04:36:00,79.0,69.0,30.14,East,85,0.0,-999.0,72,-99.99,,,0.00,weatherlink.com 1.10,2013-06-25 08:36:00,
2013-06-25 04:51:00,79.0,69.0,30.14,East,85,0.0,-999.0,72,-99.99,,,0.00,weatherlink.com 1.10,2013-06-25 08:51:00,
2013-06-25 05:06:00,79.0,69.0,30.15,East,85,0.0,-999.0,72,-99.99,,,0.00,weatherlink.com 1.10,2013-06-25 09:06:00,
2013-06-25 05:21:00,78.8,69.0,30.15,East,87,0.0,-999.0,73,-99.99,,,0.00,weatherlink.com 1.10,2013-06-25 09:21:00,
2013-06-25 05:36:00,78.8,69.0,30.15,East,87,0.0,-999.0,73,-99.99,,,0.00,weatherlink.com 1.10,2013-06-25 09:36:00,
2013-06-25 05:51:00,78.6,70.0,30.15,East,87,0.0,-999.0,74,-99.99,,,0.00,weatherlink.com 1.10,2013-06-25 09:51:00,
2013-06-25 06:06:00,78.3,69.0,30.16,East,87,0.0,-999.0,74,-99.99,,,0.00,weatherlink.com 1.10,2013-06-25 10:06:00,
2013-06-25 06:21:00,77.6,69.0,30.16,East,87,0.0,-999.0,75,-99.99,,,0.00,weatherlink.com 1.10,2013-06-25 10:21:00,
2013-06-25 06:36:00,77.4,69.0,30.17,East,87,0.0,-999.0,76,-99.99,,,0.00,weatherlink.com 1.10,2013-06-25 10:36:00,
2013-06-25 06:51:00,77.0,69.0,30.17,East,87,0.0,-999.0,77,-99.99,,,0.00,weatherlink.com 1.10,2013-06-25 10:51:00,
2013-06-25 07:06:00,76.7,69.0,30.17,East,87,0.0,-999.0,78,-99.99,,,0.00,weatherlink.com 1.10,2013-06-25 11:06:00,
2013-06-25 07:21:00,76.5,69.0,30.17,East,87,0.0,-999.0,78,-99.99,,,0.00,weatherlink.com 1.10,2013-06-25 11:21:00,
2013-06-25 07:36:00,76.8,70.0,30.17,East,87,0.0,-999.0,79,-99.99,,,0.00,weatherlink.com 1.10,2013-06-25 11:36:00,
2013-06-25 07:51:00,77.2,71.0,30.18,East,87,0.0,-999.0,80,-99.99,,,0.00,weatherlink.com 1.10,2013-06-25 11:51:00,
2013-06-25 08:06:00,77.9,71.0,30.18,East,87,0.0,-999.0,79,-99.99,,,0.00,weatherlink.com 1.10,2013-06-25 12:06:00,
2013-06-25 08:21:00,78.6,71.0,30.18,SW,216,0.0,-999.0,78,-99.99,,,0.00,weatherlink.com 1.10,2013-06-25 12:21:00,
2013-06-25 08:36:00,79.4,72.0,30.19,ESE,123,0.0,-999.0,77,-99.99,,,0.00,weatherlink.com 1.10,2013-06-25 12:36:00,
2013-06-25 08:51:00,79.6,71.0,30.18,East,84,0.0,-999.0,76,-99.99,,,0.00,weatherlink.com 1.10,2013-06-25 12:51:00,
2013-06-25 09:06:00,79.9,71.0,30.18,SSE,159,0.0,-999.0,75,-99.99,,,0.00,weatherlink.com 1.10,2013-06-25 13:06:00,
2013-06-25 09:21:00,80.5,71.0,30.19,SSE,155,0.0,-999.0,73,-99.99,,,0.00,weatherlink.com 1.10,2013-06-25 13:21:00,
2013-06-25 09:36:00,81.2,71.0,30.18,ESE,114,0.0,-999.0,72,-99.99,,,0.00,weatherlink.com 1.10,2013-06-25 13:36:00,
2013-06-25 09:51:00,82.4,72.0,30.18,South,180,0.0,-999.0,70,-99.99,,,0.00,weatherlink.com 1.10,2013-06-25 13:51:00,
2013-06-25 10:06:00,82.6,71.0,30.18,ESE,109,0.0,-999.0,69,-99.99,,,0.00,weatherlink.com 1.10,2013-06-25 14:06:00,
2013-06-25 10:21:00,82.4,72.0,30.18,ESE,109,0.0,-999.0,70,-99.99,,,0.00,weatherlink.com 1.10,2013-06-25 14:21:00,
2013-06-25 10:36:00,82.4,71.0,30.18,ESE,109,0.0,-999.0,69,-99.99,,,0.00,weatherlink.com 1.10,2013-06-25 14:36:00,
2013-06-25 10:51:00,83.2,70.0,30.18,ESE,109,0.0,-999.0,65,-99.99,,,0.00,weatherlink.com 1.10,2013-06-25 14:51:00,
2013-06-25 11:06:00,83.0,71.0,30.18,ESE,108,0.0,-999.0,68,-99.99,,,0.00,weatherlink.com 1.10,2013-06-25 15:06:00,
2013-06-25 11:21:00,83.0,69.0,30.18,East,87,1.0,-999.0,62,-99.99,,,0.00,weatherlink.com 1.10,2013-06-25 15:21:00,
2013-06-25 11:36:00,84.7,69.0,30.18,ENE,73,0.0,-999.0,60,-99.99,,,0.00,weatherlink.com 1.10,2013-06-25 15:36:00,
2013-06-25 11:51:00,85.3,70.0,30.18,East,81,0.0,-999.0,60,-99.99,,,0.00,weatherlink.com 1.10,2013-06-25 15:51:00,
2013-06-25 12:06:00,85.5,70.0,30.18,ENE,68,0.0,-999.0,60,-99.99,,,0.00,weatherlink.com 1.10,2013-06-25 16:06:00,
2013-06-25 12:21:00,85.5,70.0,30.18,WNW,282,1.0,-999.0,60,-99.99,,,0.00,weatherlink.com 1.10,2013-06-25 16:21:00,
2013-06-25 12:36:00,87.8,71.0,30.18,NNW,330,0.0,-999.0,58,-99.99,,,0.00,weatherlink.com 1.10,2013-06-25 16:36:00,
2013-06-25 12:51:00,88.4,71.0,30.17,East,92,0.0,-999.0,57,-99.99,,,0.00,weatherlink.com 1.10,2013-06-25 16:51:00,
2013-06-25 13:06:00,87.2,72.0,30.17,North,356,2.0,-999.0,60,-99.99,,,0.00,weatherlink.com 1.10,2013-06-25 17:06:00,
2013-06-25 13:21:00,86.1,71.0,30.18,ENE,61,1.0,-999.0,61,-99.99,,,0.00,weatherlink.com 1.10,2013-06-25 17:21:00,
2013-06-25 13:36:00,85.3,68.0,30.16,East,82,1.0,-999.0,56,-99.99,,,0.00,weatherlink.com 1.10,2013-06-25 17:36:00,
2013-06-25 13:51:00,85.5,67.0,30.17,ENE,77,0.0,-999.0,55,-99.99,,,0.00,weatherlink.com 1.10,2013-06-25 17:51:00,
2013-06-25 14:06:00,85.9,67.0,30.16,ENE,70,2.0,-999.0,54,-99.99,,,0.00,weatherlink.com 1.10,2013-06-25 18:06:00,
2013-06-25 14:21:00,85.5,67.0,30.16,East,84,1.0,-999.0,55,-99.99,,,0.00,weatherlink.com 1.10,2013-06-25 18:21:00,
2013-06-25 14:36:00,84.9,67.0,30.14,ENE,68,0.0,-999.0,56,-99.99,,,0.00,weatherlink.com 1.10,2013-06-25 18:36:00,
2013-06-25 14:51:00,85.5,68.0,30.14,ENE,64,1.0,-999.0,57,-99.99,,,0.00,weatherlink.com 1.10,2013-06-25 18:51:00,
2013-06-25 15:06:00,86.3,69.0,30.14,NE,35,1.0,-999.0,57,-99.99,,,0.00,weatherlink.com 1.10,2013-06-25 19:06:00,
2013-06-25 15:21:00,87.0,69.0,30.14,ENE,66,1.0,-999.0,55,-99.99,,,0.00,weatherlink.com 1.10,2013-06-25 19:21:00,
2013-06-25 15:36:00,88.4,69.0,30.13,WNW,291,3.0,-999.0,52,-99.99,,,0.00,weatherlink.com 1.10,2013-06-25 19:36:00,
2013-06-25 15:51:00,90.1,68.0,30.12,ENE,76,0.0,-999.0,49,-99.99,,,0.00,weatherlink.com 1.10,2013-06-25 19:51:00,
2013-06-25 16:06:00,90.3,69.0,30.12,NW,311,0.0,-999.0,49,-99.99,,,0.00,weatherlink.com 1.10,2013-06-25 20:06:00,
2013-06-25 16:21:00,88.0,68.0,30.12,SSE,162,1.0,-999.0,52,-99.99,,,0.00,weatherlink.com 1.10,2013-06-25 20:21:00,
2013-06-25 16:36:00,86.7,68.0,30.11,NE,36,2.0,-999.0,54,-99.99,,,0.00,weatherlink.com 1.10,2013-06-25 20:36:00,
2013-06-25 16:51:00,85.7,67.0,30.11,East,85,0.0,-999.0,54,-99.99,,,0.00,weatherlink.com 1.10,2013-06-25 20:51:00,
2013-06-25 17:06:00,86.1,67.0,30.11,WNW,294,3.0,-999.0,54,-99.99,,,0.00,weatherlink.com 1.10,2013-06-25 21:06:00,
2013-06-25 17:22:00,85.5,67.0,30.12,East,83,0.0,-999.0,55,-99.99,,,0.00,weatherlink.com 1.10,2013-06-25 21:22:00,
2013-06-25 17:37:00,85.9,68.0,30.12,South,171,0.0,-999.0,56,-99.99,,,0.00,weatherlink.com 1.10,2013-06-25 21:37:00,
2013-06-25 17:52:00,85.5,68.0,30.12,East,91,1.0,-999.0,57,-99.99,,,0.00,weatherlink.com 1.10,2013-06-25 21:52:00,
2013-06-25 18:07:00,84.7,68.0,30.11,NE,54,0.0,-999.0,58,-99.99,,,0.00,weatherlink.com 1.10,2013-06-25 22:07:00,
2013-06-25 18:22:00,84.1,68.0,30.11,ENE,78,0.0,-999.0,59,-99.99,,,0.00,weatherlink.com 1.10,2013-06-25 22:22:00,
2013-06-25 18:37:00,83.6,68.0,30.11,NNE,19,3.0,-999.0,60,-99.99,,,0.00,weatherlink.com 1.10,2013-06-25 22:37:00,
2013-06-25 18:52:00,82.4,66.0,30.11,ENE,75,0.0,-999.0,58,-99.99,,,0.00,weatherlink.com 1.10,2013-06-25 22:52:00,
2013-06-25 19:07:00,82.0,66.0,30.11,ENE,75,1.0,-999.0,59,-99.99,,,0.00,weatherlink.com 1.10,2013-06-25 23:07:00,
2013-06-25 19:22:00,82.0,67.0,30.11,East,90,0.0,-999.0,60,-99.99,,,0.00,weatherlink.com 1.10,2013-06-25 23:22:00,
2013-06-25 19:37:00,81.8,66.0,30.10,ENE,70,1.0,-999.0,60,-99.99,,,0.00,weatherlink.com 1.10,2013-06-25 23:37:00,
2013-06-25 19:52:00,81.4,66.0,30.11,ENE,66,0.0,-999.0,60,-99.99,,,0.00,weatherlink.com 1.10,2013-06-25 23:52:00,
2013-06-25 20:07:00,81.2,66.0,30.11,ENE,58,0.0,-999.0,60,-99.99,,,0.00,weatherlink.com 1.10,2013-06-26 00:07:00,
2013-06-25 20:22:00,80.7,65.0,30.12,East,88,0.0,-999.0,59,-99.99,,,0.00,weatherlink.com 1.10,2013-06-26 00:22:00,
2013-06-25 20:37:00,79.4,63.0,30.11,ENE,64,0.0,-999.0,57,-99.99,,,0.00,weatherlink.com 1.10,2013-06-26 00:37:00,
2013-06-25 20:52:00,78.6,62.0,30.11,ENE,64,0.0,-999.0,57,-99.99,,,0.00,weatherlink.com 1.10,2013-06-26 00:52:00,
2013-06-25 21:07:00,78.5,63.0,30.11,SSW,201,0.0,-999.0,59,-99.99,,,0.00,weatherlink.com 1.10,2013-06-26 01:07:00,
2013-06-25 21:22:00,78.1,63.0,30.11,South,180,0.0,-999.0,60,-99.99,,,0.00,weatherlink.com 1.10,2013-06-26 01:22:00,
2013-06-25 21:37:00,77.9,64.0,30.12,South,180,0.0,-999.0,62,-99.99,,,0.00,weatherlink.com 1.10,2013-06-26 01:37:00,
2013-06-25 21:52:00,77.7,64.0,30.12,South,180,0.0,-999.0,63,-99.99,,,0.00,weatherlink.com 1.10,2013-06-26 01:52:00,
2013-06-25 22:07:00,77.2,65.0,30.12,South,180,0.0,-999.0,66,-99.99,,,0.01,weatherlink.com 1.10,2013-06-26 02:07:00,
2013-06-25 22:22:00,76.5,65.0,30.11,South,180,0.0,-999.0,68,-99.99,,,0.02,weatherlink.com 1.10,2013-06-26 02:22:00,
2013-06-25 22:37:00,76.1,66.0,30.11,South,180,0.0,-999.0,71,-99.99,,,0.02,weatherlink.com 1.10,2013-06-26 02:37:00,
2013-06-25 22:52:00,76.0,66.0,30.11,South,180,0.0,-999.0,72,-99.99,,,0.02,weatherlink.com 1.10,2013-06-26 02:52:00,
2013-06-25 23:07:00,75.4,66.0,30.10,South,180,0.0,-999.0,72,-99.99,,,0.03,weatherlink.com 1.10,2013-06-26 03:07:00,
2013-06-25 23:22:00,75.4,67.0,30.11,South,180,0.0,-999.0,74,-99.99,,,0.03,weatherlink.com 1.10,2013-06-26 03:22:00,
2013-06-25 23:37:00,75.6,67.0,30.10,South,180,0.0,-999.0,75,-99.99,,,0.03,weatherlink.com 1.10,2013-06-26 03:37:00,
2013-06-25 23:52:00,75.8,68.0,30.09,South,180,0.0,-999.0,76,-99.99,,,0.03,weatherlink.com 1.10,2013-06-26 03:52:00,